Time;durP1;ratioP1;P1;durP2;ratioP2;P2;SDS_P1;SDS_P2;PMS_P1;PMS_P2;Temp;Humidity;BMP_temperature;BMP_pressure;BME280_temperature;BME280_humidity;BME280_pressure;Samples;Min_cycle;Max_cycle;Signal;HPM_P1;HPM_P2
2022/02/03 00:00:40;;;;;;;46.10;29.98;;;9.20;99.90;;;;;;5064745;28;20040;-85
2022/02/03 00:05:48;;;;;;;30.73;22.88;;;9.20;99.90;;;;;;5050424;28;20035;-81
2022/02/03 00:24:25;;;;;;;32.70;24.77;;;9.10;99.90;;;;;;5060870;28;20032;-82
2022/02/03 00:27:15;;;;;;;33.17;25.05;;;9.10;99.90;;;;;;5064772;28;20043;-82
2022/02/03 00:32:41;;;;;;;41.83;28.58;;;9.10;99.90;;;;;;5043809;28;20032;-82
2022/02/03 00:51:13;;;;;;;38.40;27.40;;;9.00;99.90;;;;;;5048588;28;20040;-82
2022/02/03 00:53:39;;;;;;;46.78;32.17;;;9.10;99.90;;;;;;5031913;28;20028;-82
2022/02/03 00:56:14;;;;;;;48.00;30.67;;;9.10;99.90;;;;;;5032252;28;20032;-82
2022/02/03 00:58:50;;;;;;;33.63;25.17;;;9.10;99.90;;;;;;5064737;28;20031;-82
2022/02/03 01:01:23;;;;;;;37.47;27.40;;;9.00;99.90;;;;;;5049140;28;20032;-82
2022/02/03 01:03:51;;;;;;;37.88;28.02;;;9.00;99.90;;;;;;5058292;28;20037;-83
2022/02/03 01:06:20;;;;;;;43.58;30.80;;;9.00;99.90;;;;;;5046484;28;20043;-82
2022/02/03 01:08:50;;;;;;;36.55;26.88;;;9.10;99.90;;;;;;5063625;28;20036;-83
2022/02/03 01:11:23;;;;;;;36.40;27.13;;;9.00;99.90;;;;;;5032563;28;20031;-83
2022/02/03 01:14:03;;;;;;;40.00;30.15;;;9.10;99.90;;;;;;5061187;28;20024;-83
2022/02/03 01:44:05;;;;;;;52.75;37.05;;;9.10;99.90;;;;;;5044177;28;20562;-83
2022/02/03 01:46:54;;;;;;;58.67;37.28;;;9.10;99.90;;;;;;5025745;28;20032;-82
2022/02/03 01:52:38;;;;;;;55.00;37.55;;;9.10;99.90;;;;;;5054503;28;20062;-83
2022/02/03 01:55:15;;;;;;;53.50;37.10;;;9.10;99.90;;;;;;5064478;28;20025;-84
2022/02/03 01:57:57;;;;;;;57.15;37.50;;;9.10;99.90;;;;;;5059790;28;20479;-83
2022/02/03 02:00:25;;;;;;;53.60;37.15;;;9.10;99.90;;;;;;5060443;28;20490;-83
2022/02/03 02:03:16;;;;;;;60.15;39.55;;;9.10;99.90;;;;;;5029335;28;20557;-84
2022/02/03 02:06:40;;;;;;;57.28;37.90;;;9.10;99.90;;;;;;5062697;28;20032;-84
2022/02/03 02:09:37;;;;;;;62.05;40.25;;;9.10;99.90;;;;;;5002541;28;20042;-83
2022/02/03 02:12:23;;;;;;;60.30;38.70;;;9.10;99.90;;;;;;4989307;28;20041;-83
2022/02/03 02:38:08;;;;;;;59.60;36.88;;;9.20;99.90;;;;;;5047424;28;20032;-84
2022/02/03 02:43:51;;;;;;;64.13;41.10;;;9.10;99.90;;;;;;5079012;28;20042;-84
2022/02/03 02:46:30;;;;;;;53.70;35.38;;;9.10;99.90;;;;;;5061204;28;20043;-84
2022/02/03 02:49:21;;;;;;;57.80;37.70;;;9.10;99.90;;;;;;5068016;28;20032;-84
2022/02/03 02:52:05;;;;;;;67.22;40.00;;;9.10;99.90;;;;;;5080778;28;21028;-84
2022/02/03 03:37:00;;;;;;;57.28;34.35;;;9.00;99.90;;;;;;5065810;28;20032;-84
2022/02/03 03:39:32;;;;;;;55.58;32.92;;;8.90;99.90;;;;;;5081249;28;20035;-83
2022/02/03 03:42:02;;;;;;;59.83;36.08;;;9.00;99.90;;;;;;5048128;28;20051;-83
2022/02/03 03:44:34;;;;;;;60.38;33.78;;;8.90;99.90;;;;;;5079191;28;20451;-83
2022/02/03 03:47:04;;;;;;;53.90;34.60;;;8.90;99.90;;;;;;5066418;28;20367;-84
2022/02/03 03:49:46;;;;;;;58.97;35.22;;;8.90;99.90;;;;;;5062739;28;20597;-83
2022/02/03 03:52:20;;;;;;;56.85;33.15;;;8.90;99.90;;;;;;5065593;28;20389;-83
2022/02/03 03:55:00;;;;;;;54.97;32.90;;;8.90;99.90;;;;;;5047316;28;20043;-83
2022/02/03 03:57:46;;;;;;;51.95;32.95;;;8.90;99.90;;;;;;5031834;28;20028;-83
2022/02/03 04:00:35;;;;;;;49.30;30.55;;;8.90;99.90;;;;;;5044776;28;20033;-83
2022/02/03 04:29:06;;;;;;;52.22;31.02;;;8.90;99.90;;;;;;5064140;28;20043;-84
2022/02/03 04:31:39;;;;;;;36.15;23.05;;;8.80;99.90;;;;;;5078897;28;20494;-84
2022/02/03 05:02:08;;;;;;;44.83;26.60;;;8.80;99.90;;;;;;5062598;28;20047;-84
2022/02/03 05:05:33;;;;;;;43.45;29.85;;;8.70;99.90;;;;;;5049865;28;20051;-84
2022/02/03 05:17:14;;;;;;;40.80;26.80;;;8.70;99.90;;;;;;5052803;28;20028;-83
2022/02/03 05:46:16;;;;;;;27.55;19.23;;;8.60;99.90;;;;;;5060271;28;20045;-83
2022/02/03 05:49:00;;;;;;;36.78;21.05;;;8.60;99.90;;;;;;5036498;28;20024;-83
2022/02/03 05:52:00;;;;;;;31.55;22.13;;;8.60;99.90;;;;;;5048015;28;20035;-83
2022/02/03 06:13:06;;;;;;;27.55;20.35;;;8.50;99.90;;;;;;5059534;28;20046;-83
2022/02/03 06:29:16;;;;;;;25.63;19.60;;;8.40;99.90;;;;;;5065945;28;20391;-84
2022/02/03 06:31:53;;;;;;;25.42;18.13;;;8.40;99.90;;;;;;5036399;28;20029;-83
2022/02/03 06:34:22;;;;;;;25.83;17.48;;;8.40;99.90;;;;;;5048089;28;20032;-84
2022/02/03 06:36:56;;;;;;;27.48;16.45;;;8.40;99.90;;;;;;5033842;28;20043;-83
2022/02/03 06:39:27;;;;;;;20.98;14.95;;;8.40;99.90;;;;;;5047527;28;20020;-81
2022/02/03 06:41:58;;;;;;;18.52;13.65;;;8.40;99.90;;;;;;5043582;28;20035;-82
2022/02/03 06:44:37;;;;;;;21.83;15.88;;;8.40;99.90;;;;;;5049281;28;20028;-83
2022/02/03 06:47:32;;;;;;;19.70;14.80;;;8.40;99.90;;;;;;5053592;28;20051;-82
2022/02/03 06:50:14;;;;;;;20.38;13.05;;;8.40;99.90;;;;;;5039518;28;20464;-83
2022/02/03 06:58:01;;;;;;;19.80;10.85;;;8.40;99.90;;;;;;5047959;28;20036;-82
2022/02/03 07:00:41;;;;;;;15.23;8.73;;;8.30;99.90;;;;;;5035013;28;20052;-82
2022/02/03 07:03:18;;;;;;;15.15;8.45;;;8.40;99.90;;;;;;5050729;28;20036;-81
2022/02/03 07:05:45;;;;;;;13.32;6.65;;;8.30;99.90;;;;;;5051677;28;20040;-81
2022/02/03 07:08:16;;;;;;;12.43;6.40;;;8.30;99.90;;;;;;5046796;28;20406;-82
2022/02/03 07:10:43;;;;;;;14.38;7.47;;;8.30;99.90;;;;;;5034180;28;20048;-84
2022/02/03 07:13:10;;;;;;;12.82;7.00;;;8.30;99.90;;;;;;5064378;28;20343;-85
2022/02/03 07:15:37;;;;;;;12.57;6.22;;;8.30;99.90;;;;;;5045326;28;20048;-82
2022/02/03 07:18:04;;;;;;;11.40;5.30;;;8.30;99.90;;;;;;5052267;28;20036;-83
2022/02/03 07:20:35;;;;;;;11.00;5.25;;;8.30;99.90;;;;;;5078229;28;20580;-81
2022/02/03 07:23:24;;;;;;;11.70;5.22;;;8.30;99.90;;;;;;5079834;28;20032;-82
2022/02/03 07:25:49;;;;;;;12.27;7.28;;;8.30;99.90;;;;;;5062848;28;20479;-82
2022/02/03 07:28:16;;;;;;;15.32;6.35;;;8.30;99.90;;;;;;5018470;28;20510;-82
2022/02/03 07:30:45;;;;;;;13.35;6.45;;;8.30;99.90;;;;;;5039357;28;20044;-83
2022/02/03 07:33:13;;;;;;;11.52;5.80;;;8.30;99.90;;;;;;5049177;28;20040;-82
2022/02/03 07:35:40;;;;;;;11.05;5.50;;;8.30;99.90;;;;;;5036015;28;20043;-79
2022/02/03 07:38:08;;;;;;;12.88;5.60;;;8.30;99.90;;;;;;5048565;28;20067;-80
2022/02/03 07:40:35;;;;;;;10.18;4.97;;;8.30;99.90;;;;;;5050772;28;20024;-79
2022/02/03 07:43:04;;;;;;;13.77;6.05;;;8.30;99.90;;;;;;5035312;28;20032;-79
2022/02/03 07:45:32;;;;;;;12.70;7.00;;;8.20;99.90;;;;;;5063400;28;20030;-79
2022/02/03 07:47:58;;;;;;;12.48;6.85;;;8.30;99.90;;;;;;5058865;28;20036;-79
2022/02/03 07:50:25;;;;;;;14.88;7.68;;;8.30;99.90;;;;;;5033630;28;20037;-79
2022/02/03 07:52:51;;;;;;;13.48;6.93;;;8.20;99.90;;;;;;5062124;28;20391;-80
2022/02/03 07:55:20;;;;;;;10.80;5.75;;;8.30;99.90;;;;;;5051355;28;20383;-83
2022/02/03 07:57:49;;;;;;;14.43;7.97;;;8.30;99.90;;;;;;5034732;28;20032;-82
2022/02/03 08:00:17;;;;;;;13.13;8.13;;;8.30;99.90;;;;;;5047855;28;20032;-83
2022/02/03 08:02:44;;;;;;;20.98;10.63;;;8.30;99.90;;;;;;5044859;28;20712;-83
2022/02/03 08:05:19;;;;;;;14.75;9.15;;;8.30;99.90;;;;;;5059262;28;20031;-81
2022/02/03 08:07:56;;;;;;;13.95;8.57;;;8.30;99.90;;;;;;5044208;28;20028;-88
2022/02/03 08:10:33;;;;;;;15.65;8.52;;;8.30;99.90;;;;;;5064371;28;20084;-82
2022/02/03 08:13:02;;;;;;;14.13;9.15;;;8.30;99.90;;;;;;5078895;28;20012;-81
2022/02/03 08:15:31;;;;;;;19.08;9.38;;;8.30;99.90;;;;;;5046715;28;20040;-79
2022/02/03 08:18:03;;;;;;;13.90;9.20;;;8.30;99.90;;;;;;5046028;28;20063;-80
2022/02/03 08:20:30;;;;;;;19.65;11.63;;;8.40;99.90;;;;;;5078916;28;20036;-80
2022/02/03 08:25:53;;;;;;;16.02;10.25;;;8.40;99.90;;;;;;5049003;28;20037;-80
2022/02/03 08:31:01;;;;;;;15.50;10.27;;;8.40;99.90;;;;;;5067245;28;20035;-81
2022/02/03 08:33:28;;;;;;;13.95;9.45;;;8.40;99.90;;;;;;5030866;28;21105;-78
2022/02/03 08:35:57;;;;;;;15.80;10.23;;;8.40;99.90;;;;;;5032290;28;20040;-78
2022/02/03 08:41:09;;;;;;;18.65;10.27;;;8.40;99.90;;;;;;5051007;28;20042;-78
2022/02/03 08:43:37;;;;;;;19.65;10.23;;;8.40;99.90;;;;;;5063077;28;20024;-78
2022/02/03 08:46:07;;;;;;;14.00;9.75;;;8.40;99.90;;;;;;5044317;28;20032;-78
2022/02/03 08:48:35;;;;;;;17.80;10.75;;;8.40;99.90;;;;;;5072872;28;20391;-78
2022/02/03 08:51:05;;;;;;;13.90;9.75;;;8.40;99.90;;;;;;5016207;28;20047;-78
2022/02/03 08:53:38;;;;;;;19.30;10.55;;;8.40;99.90;;;;;;5039910;28;20032;-78
2022/02/03 09:50:33;;;;;;;16.75;10.65;;;8.50;99.90;;;;;;5057863;28;20479;-78
2022/02/03 09:58:20;;;;;;;16.20;9.80;;;8.50;99.90;;;;;;5074303;28;20051;-78
2022/02/03 10:01:05;;;;;;;14.93;8.38;;;8.50;99.90;;;;;;5031421;28;20013;-78
2022/02/03 10:06:20;;;;;;;14.45;9.57;;;8.60;99.90;;;;;;5045858;28;20510;-78
2022/02/03 10:08:57;;;;;;;15.07;10.18;;;8.60;99.90;;;;;;5045572;28;21326;-78
2022/02/03 10:11:27;;;;;;;16.52;10.40;;;8.60;99.90;;;;;;5044009;28;20518;-77
2022/02/03 10:13:56;;;;;;;17.00;9.70;;;8.60;99.90;;;;;;5057314;28;20135;-78
2022/02/03 10:16:33;;;;;;;12.88;9.75;;;8.50;99.90;;;;;;5047300;28;20482;-77
2022/02/03 10:19:12;;;;;;;19.85;10.15;;;8.50;99.90;;;;;;5047320;28;20024;-78
2022/02/03 10:21:42;;;;;;;17.17;10.07;;;8.50;99.90;;;;;;5064422;28;20440;-77
2022/02/03 10:24:15;;;;;;;13.55;9.15;;;8.40;99.90;;;;;;5047035;28;20016;-78
2022/02/03 10:26:45;;;;;;;;;;;8.40;99.90;;;;;;5065885;28;20036;-78
2022/02/03 10:29:14;;;;;;;17.30;10.30;;;8.40;99.90;;;;;;5056302;28;19924;-78
2022/02/03 10:31:43;;;;;;;13.40;9.77;;;8.30;99.90;;;;;;5046946;28;20028;-78
2022/02/03 10:34:14;;;;;;;13.88;8.82;;;8.30;99.90;;;;;;5028565;28;20498;-77
2022/02/03 10:36:47;;;;;;;15.20;9.25;;;8.30;99.90;;;;;;5042553;28;20012;-78
2022/02/03 10:53:43;;;;;;;21.77;9.85;;;8.50;99.90;;;;;;5058953;28;20492;-77
2022/02/03 10:56:41;;;;;;;16.90;9.35;;;8.50;99.90;;;;;;5045699;28;20039;-78
2022/02/03 10:59:52;;;;;;;16.75;9.77;;;8.50;99.90;;;;;;5044345;28;20047;-79
2022/02/03 11:07:46;;;;;;;16.45;9.10;;;8.70;99.90;;;;;;5049099;28;20041;-78
2022/02/03 11:12:46;;;;;;;15.20;8.88;;;8.80;99.90;;;;;;5077382;28;20039;-78
2022/02/03 11:15:13;;;;;;;14.93;8.43;;;8.90;99.90;;;;;;5046908;28;20486;-76
2022/02/03 11:17:40;;;;;;;21.88;10.23;;;8.90;99.90;;;;;;5036031;28;20483;-77
2022/02/03 11:20:08;;;;;;;18.65;8.73;;;8.90;99.90;;;;;;5064427;28;20055;-75
2022/02/03 11:22:57;;;;;;;14.77;8.63;;;8.90;99.90;;;;;;5051782;28;20032;-76
2022/02/03 11:28:51;;;;;;;14.80;7.82;;;8.90;99.90;;;;;;5033073;28;20032;-78
2022/02/03 11:43:03;;;;;;;14.02;7.50;;;8.90;99.90;;;;;;5049665;28;20040;-81
2022/02/03 12:12:38;;;;;;;17.83;10.05;;;8.80;99.90;;;;;;5049520;28;20036;-78
2022/02/03 12:15:47;;;;;;;19.05;9.75;;;8.80;99.90;;;;;;5058253;28;20479;-78
2022/02/03 12:20:59;;;;;;;;;;;8.80;99.90;;;;;;5061052;28;20020;-78
2022/02/03 12:26:25;;;;;;;21.27;10.02;;;8.90;99.90;;;;;;5057192;28;20383;-78
2022/02/03 12:28:54;;;;;;;18.15;10.05;;;9.00;99.90;;;;;;5057157;28;20036;-79
2022/02/03 12:39:39;;;;;;;18.48;10.23;;;9.00;99.90;;;;;;5058537;28;20039;-82
2022/02/03 12:42:20;;;;;;;19.13;9.40;;;9.00;99.90;;;;;;5030308;28;20035;-80
2022/02/03 12:44:50;;;;;;;16.48;8.20;;;9.00;99.90;;;;;;5043859;28;20035;-87
2022/02/03 12:47:17;;;;;;;12.48;7.90;;;9.00;99.90;;;;;;5062781;28;20043;-82
2022/02/03 12:49:45;;;;;;;14.45;8.55;;;9.00;99.90;;;;;;5061138;28;20039;-82
2022/02/03 12:52:45;;;;;;;18.05;9.32;;;9.00;99.90;;;;;;5045527;28;20040;-81
2022/02/03 12:55:23;;;;;;;15.75;8.88;;;9.00;99.90;;;;;;5038437;28;20510;-82
2022/02/03 12:57:50;;;;;;;15.20;8.95;;;9.00;99.90;;;;;;5047646;28;20127;-81
2022/02/03 13:00:27;;;;;;;18.08;8.45;;;8.90;99.90;;;;;;5047526;28;20032;-82
2022/02/03 13:02:57;;;;;;;13.52;8.13;;;8.90;99.90;;;;;;5075449;28;20023;-78
2022/02/03 13:05:26;;;;;;;12.80;7.60;;;8.90;99.90;;;;;;5065002;28;20028;-81
2022/02/03 13:07:56;;;;;;;13.80;7.53;;;8.90;99.90;;;;;;5060192;28;20047;-84
2022/02/03 13:10:25;;;;;;;26.40;12.70;;;8.90;99.90;;;;;;5036012;28;20048;-83
2022/02/03 13:13:04;;;;;;;16.05;9.13;;;8.90;99.90;;;;;;5063787;28;20063;-83
2022/02/03 13:15:42;;;;;;;23.05;10.13;;;8.90;99.90;;;;;;5050512;28;20031;-88
2022/02/03 13:18:21;;;;;;;16.27;9.27;;;8.90;99.90;;;;;;5062502;28;20043;-82
2022/02/03 13:21:08;;;;;;;19.92;8.52;;;8.90;99.90;;;;;;5032954;28;20054;-82
2022/02/03 13:23:40;;;;;;;16.02;7.80;;;8.90;99.90;;;;;;5069139;28;20062;-82
2022/02/03 13:26:13;;;;;;;16.98;8.57;;;8.90;99.90;;;;;;5046344;28;20049;-83
2022/02/03 13:28:57;;;;;;;12.85;7.63;;;8.90;99.90;;;;;;5064300;28;20056;-82
2022/02/03 13:31:43;;;;;;;16.85;7.22;;;8.80;99.90;;;;;;5064379;28;20384;-82
2022/02/03 13:34:27;;;;;;;14.98;7.97;;;8.80;99.90;;;;;;5047509;28;20039;-82
2022/02/03 13:37:10;;;;;;;13.10;8.02;;;8.80;99.90;;;;;;5063384;28;20470;-80
2022/02/03 13:39:38;;;;;;;14.95;8.77;;;8.70;99.90;;;;;;5029448;28;20051;-80
2022/02/03 13:42:10;;;;;;;13.85;7.57;;;8.70;99.90;;;;;;5048488;28;20054;-80
2022/02/03 13:44:37;;;;;;;16.03;8.87;;;8.60;99.90;;;;;;5042502;28;20549;-80
2022/02/03 13:47:25;;;;;;;11.30;7.40;;;8.60;99.90;;;;;;5029562;28;20032;-79
2022/02/03 13:50:01;;;;;;;12.93;8.02;;;8.60;99.90;;;;;;5078500;28;20375;-82
2022/02/03 13:52:38;;;;;;;11.00;6.63;;;8.60;99.90;;;;;;5044940;28;20044;-82
2022/02/03 14:22:58;;;;;;;17.42;9.35;;;8.30;99.90;;;;;;5069540;28;20040;-83
2022/02/03 14:28:13;;;;;;;14.57;8.65;;;8.30;99.90;;;;;;5064607;28;20091;-82
2022/02/03 14:30:44;;;;;;;16.38;10.07;;;8.30;99.90;;;;;;5034599;28;20052;-82
2022/02/03 14:33:14;;;;;;;16.25;9.65;;;8.30;99.90;;;;;;5060807;28;20047;-82
2022/02/03 14:35:41;;;;;;;13.55;9.75;;;8.30;99.90;;;;;;5046828;28;20044;-82
2022/02/03 14:38:17;;;;;;;16.75;10.25;;;8.20;99.90;;;;;;5059000;28;20048;-82
2022/02/03 14:40:55;;;;;;;13.48;9.88;;;8.20;99.90;;;;;;5047904;28;20051;-82
2022/02/03 14:43:22;;;;;;;15.82;10.00;;;8.20;99.90;;;;;;5034195;28;20032;-82
2022/02/03 14:45:49;;;;;;;15.35;9.75;;;8.20;99.90;;;;;;5036061;28;20376;-82
2022/02/03 14:48:16;;;;;;;15.32;9.48;;;8.20;99.90;;;;;;5065259;28;20020;-82
2022/02/03 14:50:46;;;;;;;17.00;10.80;;;8.20;99.90;;;;;;5035845;28;20032;-82
2022/02/03 14:53:19;;;;;;;16.63;10.65;;;8.20;99.90;;;;;;5065484;28;20040;-82
2022/02/03 14:58:31;;;;;;;14.45;9.82;;;8.20;99.90;;;;;;5067102;28;20035;-82
2022/02/03 15:00:58;;;;;;;20.10;12.68;;;8.20;99.90;;;;;;5082542;28;20048;-82
2022/02/03 15:03:26;;;;;;;21.92;11.75;;;8.20;99.90;;;;;;5048728;28;20817;-81
2022/02/03 15:05:55;;;;;;;16.27;12.38;;;8.20;99.90;;;;;;5048745;28;20044;-81
2022/02/03 15:08:43;;;;;;;18.40;12.90;;;8.10;99.90;;;;;;5066438;28;20043;-81
2022/02/03 15:11:23;;;;;;;16.90;12.25;;;8.10;99.90;;;;;;5068799;28;20047;-83
2022/02/03 15:13:49;;;;;;;17.52;13.82;;;8.10;99.90;;;;;;5064635;28;20021;-82
2022/02/03 15:16:16;;;;;;;20.90;12.98;;;8.10;99.90;;;;;;5040521;28;20036;-82
2022/02/03 15:18:43;;;;;;;23.45;14.20;;;8.00;99.90;;;;;;5051237;28;20051;-82
2022/02/03 15:21:10;;;;;;;21.42;13.73;;;8.00;99.90;;;;;;5071382;28;20028;-82
2022/02/03 15:23:37;;;;;;;20.23;11.85;;;8.00;99.90;;;;;;5046860;28;20047;-82
2022/02/03 15:26:05;;;;;;;17.58;11.60;;;7.90;99.90;;;;;;5054277;28;20036;-82
2022/02/03 15:28:32;;;;;;;15.88;10.48;;;7.90;99.90;;;;;;5034145;28;20048;-82
2022/02/03 15:31:02;;;;;;;19.15;11.35;;;7.80;99.90;;;;;;5043288;28;20040;-83
2022/02/03 15:33:28;;;;;;;30.48;14.57;;;7.80;99.90;;;;;;5066127;28;20044;-83
2022/02/03 15:36:02;;;;;;;15.77;10.98;;;7.80;99.90;;;;;;5024752;28;20064;-83
2022/02/03 15:38:34;;;;;;;17.88;11.25;;;7.80;99.90;;;;;;5038810;28;20036;-83
2022/02/03 15:41:04;;;;;;;22.15;11.55;;;7.90;99.90;;;;;;5061738;28;20024;-83
2022/02/03 15:43:38;;;;;;;14.57;10.20;;;7.80;99.90;;;;;;5035071;28;20041;-83
2022/02/03 15:46:05;;;;;;;19.08;13.25;;;7.90;99.90;;;;;;5056941;28;21082;-83
2022/02/03 15:48:41;;;;;;;20.55;11.85;;;7.80;99.90;;;;;;5066253;28;20031;-83
2022/02/03 16:00:04;;;;;;;18.00;10.82;;;7.80;99.90;;;;;;5057394;28;20036;-82
2022/02/03 16:18:10;;;;;;;18.98;12.80;;;7.80;99.90;;;;;;5035473;28;20040;-79
2022/02/03 16:20:47;;;;;;;16.38;11.50;;;7.80;99.90;;;;;;5033286;28;20032;-81
2022/02/03 16:53:10;;;;;;;30.13;18.08;;;7.80;99.90;;;;;;5043826;28;20102;-83
2022/02/03 16:55:39;;;;;;;25.13;16.65;;;7.80;99.90;;;;;;5067524;28;20024;-82
2022/02/03 16:58:09;;;;;;;23.15;15.95;;;7.80;99.90;;;;;;5063806;28;20024;-81
2022/02/03 17:00:40;;;;;;;31.52;18.50;;;7.80;99.90;;;;;;5047720;28;20032;-82
2022/02/03 17:03:06;;;;;;;26.23;17.95;;;7.80;99.90;;;;;;5048570;28;20027;-82
2022/02/03 17:05:35;;;;;;;25.10;17.98;;;7.80;99.90;;;;;;5048050;28;20036;-83
2022/02/03 17:08:03;;;;;;;24.67;17.85;;;7.80;99.90;;;;;;5060874;28;20024;-82
2022/02/03 17:10:29;;;;;;;24.02;17.15;;;7.80;99.90;;;;;;5033510;28;20024;-82
2022/02/03 17:12:56;;;;;;;21.35;16.33;;;7.80;99.90;;;;;;5048884;28;20040;-82
2022/02/03 17:15:23;;;;;;;25.10;17.48;;;7.80;99.90;;;;;;5049421;28;22174;-82
2022/02/03 17:17:50;;;;;;;34.72;19.17;;;7.80;99.90;;;;;;5044119;28;20356;-83
2022/02/03 17:20:20;;;;;;;26.08;18.23;;;7.80;99.90;;;;;;5035715;28;20044;-82
2022/02/03 17:22:49;;;;;;;22.55;17.92;;;7.80;99.90;;;;;;5060587;28;20036;-83
2022/02/03 17:25:23;;;;;;;27.40;19.05;;;7.80;99.90;;;;;;5061635;28;20032;-83
2022/02/03 17:30:28;;;;;;;28.15;20.73;;;7.90;99.90;;;;;;5047730;28;20046;-79
2022/02/03 17:54:18;;;;;;;35.45;25.10;;;7.70;99.90;;;;;;5063097;28;20016;-82
2022/02/03 18:06:30;;;;;;;32.50;23.80;;;7.70;99.90;;;;;;5051043;28;20055;-85
2022/02/03 18:31:30;;;;;;;35.90;24.65;;;7.70;99.90;;;;;;5065650;28;20055;-83
2022/02/03 18:55:18;;;;;;;44.95;33.55;;;7.70;99.90;;;;;;5073962;28;20498;-79
2022/02/03 18:57:53;;;;;;;47.17;33.55;;;7.80;99.90;;;;;;5048417;28;20367;-78
2022/02/03 19:27:58;;;;;;;47.95;32.95;;;7.70;99.90;;;;;;5061805;28;20067;-77
2022/02/03 20:03:39;;;;;;;45.20;31.85;;;7.70;99.90;;;;;;5064265;28;20028;-77
2022/02/03 20:06:26;;;;;;;40.40;29.52;;;7.80;99.90;;;;;;5069185;28;20031;-79
2022/02/03 20:09:05;;;;;;;47.72;32.30;;;7.80;99.90;;;;;;5051541;28;20028;-79
2022/02/03 20:11:34;;;;;;;49.22;33.20;;;7.80;99.90;;;;;;5035576;28;20032;-80
2022/02/03 20:14:01;;;;;;;45.60;31.85;;;7.80;99.90;;;;;;5046495;28;20019;-78
2022/02/03 20:16:28;;;;;;;42.78;28.95;;;7.80;99.90;;;;;;5064011;28;20027;-78
2022/02/03 20:18:54;;;;;;;48.35;31.70;;;7.80;99.90;;;;;;5034048;28;20016;-78
2022/02/03 20:21:22;;;;;;;49.30;31.92;;;7.80;99.90;;;;;;5020288;28;20821;-78
2022/02/03 20:23:51;;;;;;;51.85;34.92;;;7.80;99.90;;;;;;5069357;28;20047;-80
2022/02/03 20:26:25;;;;;;;46.10;32.17;;;7.80;99.90;;;;;;5049532;28;20059;-80
2022/02/03 20:28:55;;;;;;;50.63;33.67;;;7.70;99.90;;;;;;5032328;28;20027;-82
2022/02/03 20:31:24;;;;;;;52.70;33.28;;;7.80;99.90;;;;;;5062208;28;20478;-81
2022/02/03 20:33:51;;;;;;;47.42;32.72;;;7.80;99.90;;;;;;5029974;28;20044;-80
2022/02/03 20:36:17;;;;;;;52.30;35.65;;;7.80;99.90;;;;;;5048103;28;20035;-80
2022/02/03 20:38:45;;;;;;;48.67;33.95;;;7.80;99.90;;;;;;5064147;28;20039;-81
2022/02/03 20:41:11;;;;;;;51.35;34.22;;;7.80;99.90;;;;;;5063501;28;20021;-81
2022/02/03 20:43:38;;;;;;;52.63;33.30;;;7.80;99.90;;;;;;5064268;28;20031;-82
2022/02/03 20:46:24;;;;;;;50.53;34.33;;;7.80;99.90;;;;;;5047426;28;20024;-84
2022/02/03 20:48:51;;;;;;;48.95;33.58;;;7.80;99.90;;;;;;5038923;28;20036;-81
2022/02/03 20:51:19;;;;;;;53.13;33.97;;;7.80;99.90;;;;;;5064928;28;20039;-81
2022/02/03 20:53:47;;;;;;;49.72;33.17;;;7.80;99.90;;;;;;5083942;28;20035;-82
2022/02/03 20:56:16;;;;;;;51.15;34.70;;;7.80;99.90;;;;;;5047674;28;20032;-81
2022/02/03 20:58:52;;;;;;;50.92;33.85;;;7.80;99.90;;;;;;5035132;28;20016;-84
2022/02/03 21:01:27;;;;;;;51.30;33.72;;;7.80;99.90;;;;;;5064977;28;20051;-84
2022/02/03 21:04:04;;;;;;;43.35;29.85;;;7.80;99.90;;;;;;5047675;28;20035;-84
2022/02/03 21:06:31;;;;;;;47.22;31.48;;;7.80;99.90;;;;;;5065853;28;20122;-83
2022/02/03 21:08:58;;;;;;;48.53;33.55;;;7.80;99.90;;;;;;5075925;28;20043;-84
2022/02/03 21:11:25;;;;;;;53.97;35.22;;;7.80;99.90;;;;;;5081926;28;20039;-79
2022/02/03 21:13:54;;;;;;;50.30;33.80;;;7.80;99.90;;;;;;5049101;28;20024;-83
2022/02/03 21:16:20;;;;;;;54.10;34.97;;;7.80;99.90;;;;;;5065142;28;20028;-85
2022/02/03 21:18:47;;;;;;;50.95;31.55;;;7.80;99.90;;;;;;5035244;28;20395;-84
2022/02/03 21:21:14;;;;;;;45.53;32.45;;;7.90;99.90;;;;;;5050638;28;20051;-84
2022/02/03 21:23:41;;;;;;;52.70;35.85;;;7.90;99.90;;;;;;5041787;28;20420;-84
2022/02/03 21:26:16;;;;;;;52.80;33.63;;;7.90;99.90;;;;;;5044782;28;20479;-83
2022/02/03 21:28:47;;;;;;;49.03;32.15;;;7.90;99.90;;;;;;5054536;28;20487;-83
2022/02/03 21:31:19;;;;;;;52.22;34.40;;;7.90;99.90;;;;;;5050073;28;20495;-86
2022/02/03 21:33:53;;;;;;;66.03;42.40;;;7.90;99.90;;;;;;5078942;28;21548;-84
2022/02/03 21:36:23;;;;;;;56.60;38.35;;;7.90;99.90;;;;;;5056020;28;20036;-83
2022/02/03 21:38:50;;;;;;;63.22;40.47;;;7.90;99.90;;;;;;5031621;28;20035;-84
2022/02/03 21:41:18;;;;;;;55.00;36.05;;;7.90;99.90;;;;;;5051466;28;20025;-85
2022/02/03 21:43:48;;;;;;;57.10;36.17;;;7.90;99.90;;;;;;5050126;28;20522;-81
2022/02/03 21:46:15;;;;;;;57.97;37.38;;;7.90;99.90;;;;;;5062727;28;20391;-81
2022/02/03 21:48:47;;;;;;;62.67;40.65;;;7.90;99.90;;;;;;5077929;28;20058;-82
2022/02/03 21:51:25;;;;;;;55.88;35.40;;;7.90;99.90;;;;;;5063384;28;20040;-81
2022/02/03 21:53:53;;;;;;;50.90;32.15;;;7.90;99.90;;;;;;5042482;28;20044;-81
2022/02/03 21:56:21;;;;;;;50.78;32.90;;;7.90;99.90;;;;;;5063310;28;20039;-79
2022/02/03 21:58:56;;;;;;;55.50;34.72;;;7.90;99.90;;;;;;5063291;28;20032;-82
2022/02/03 22:01:47;;;;;;;60.97;38.67;;;7.90;99.90;;;;;;5043966;28;20044;-81
2022/02/03 22:04:13;;;;;;;59.00;38.17;;;7.90;99.90;;;;;;5065647;28;20036;-78
2022/02/03 22:06:42;;;;;;;60.22;39.60;;;7.90;99.90;;;;;;5063274;28;20028;-82
2022/02/03 22:09:09;;;;;;;59.72;38.38;;;7.90;99.90;;;;;;5081836;28;20506;-80
2022/02/03 22:11:38;;;;;;;61.22;40.33;;;7.90;99.90;;;;;;5038123;28;20058;-80
2022/02/03 22:14:05;;;;;;;55.72;36.28;;;7.90;99.90;;;;;;5048880;28;20032;-80
2022/02/03 22:16:33;;;;;;;52.35;34.20;;;7.90;99.90;;;;;;5049832;28;20044;-81
2022/02/03 22:19:01;;;;;;;67.10;41.78;;;8.00;99.90;;;;;;5060685;28;20039;-80
2022/02/03 22:21:38;;;;;;;59.15;38.70;;;8.00;99.90;;;;;;5064717;28;20383;-79
2022/02/03 22:27:29;;;;;;;66.93;44.00;;;7.90;99.90;;;;;;5045573;28;20027;-80
2022/02/03 22:43:48;;;;;;;63.40;41.22;;;7.90;99.90;;;;;;5081692;28;20036;-79
2022/02/03 22:46:26;;;;;;;60.53;38.70;;;7.90;99.90;;;;;;5065935;28;20032;-79
2022/02/03 22:48:52;;;;;;;59.50;38.65;;;8.00;99.90;;;;;;5066683;28;20028;-80
2022/02/03 22:51:19;;;;;;;57.47;37.75;;;7.90;99.90;;;;;;5064659;28;20483;-81
2022/02/03 22:53:46;;;;;;;58.60;37.70;;;7.90;99.90;;;;;;5048649;28;20025;-80
2022/02/03 22:56:15;;;;;;;59.15;38.10;;;7.90;99.90;;;;;;5046854;28;20370;-80
2022/02/03 23:01:26;;;;;;;58.83;39.50;;;7.90;99.90;;;;;;5062280;28;20036;-80
2022/02/03 23:03:52;;;;;;;61.10;39.78;;;7.90;99.90;;;;;;5045162;28;20039;-79
2022/02/03 23:06:20;;;;;;;58.45;37.53;;;7.90;99.90;;;;;;5036063;28;20044;-79
2022/02/03 23:12:02;;;;;;;53.72;36.13;;;7.90;99.90;;;;;;5061749;28;20047;-79
2022/02/03 23:14:39;;;;;;;54.17;35.40;;;7.90;99.90;;;;;;5045616;28;20040;-80
2022/02/03 23:22:18;;;;;;;56.45;37.13;;;7.80;99.90;;;;;;5035533;28;20147;-79
2022/02/03 23:24:48;;;;;;;53.65;34.25;;;7.80;99.90;;;;;;5035827;28;20032;-78
2022/02/03 23:29:48;;;;;;;;;;;7.80;99.90;;;;;;5053480;28;20035;-79
2022/02/03 23:32:15;;;;;;;52.03;32.42;;;7.80;99.90;;;;;;5061481;28;19951;-80
2022/02/03 23:34:51;;;;;;;54.25;36.63;;;7.80;99.90;;;;;;5065875;28;20036;-82
2022/02/03 23:37:21;;;;;;;53.17;35.13;;;7.80;99.90;;;;;;5031866;28;20094;-80
2022/02/03 23:40:03;;;;;;;53.85;36.25;;;7.80;99.90;;;;;;5052244;28;20721;-79
